Terminal Aerodrome Forecast
Issued by NWS

Home | Current Version | Previous Version | Text Only | Print | Product List | Glossary On
Versions: 1 2 3 4 5 6 7 8 9 10 11 12 13 14 15 16 17 18 19 20 21 22 23 24 25 26 27 28 29
000
FTUS46 KSGX 231738
TAFSAN
TAF
KSAN 231738Z 2318/2424 VRB05KT P6SM FEW020 BKN025 OVC035
     FM231900 26010KT P6SM BKN025 OVC035
      TEMPO 2319/2322 SCT025 BKN035
     FM240200 VRB04KT P6SM BKN025
     FM241000 VRB04KT P6SM SCT015 OVC025
     FM241900 27010KT P6SM BKN025 OVC030=

USA.gov is the U.S. government's official web portal to all federal, state and local government web resources and services.